createdAt,value
2023-05-12T00:00:20.315Z,60.73
2023-05-12T00:02:01.797Z,61.06
2023-05-12T00:03:43.358Z,61.69
2023-05-12T00:05:24.816Z,62.28
2023-05-12T00:07:06.130Z,62.13
2023-05-12T00:08:47.424Z,61.59
2023-05-12T00:10:28.735Z,60.86
2023-05-12T00:12:10.028Z,59.83
2023-05-12T00:13:51.418Z,59.17
2023-05-12T00:15:32.782Z,59.30
2023-05-12T00:17:14.041Z,59.07
2023-05-12T00:18:55.387Z,59.41
2023-05-12T00:20:36.746Z,60.36
2023-05-12T00:22:18.026Z,60.40
2023-05-12T00:23:59.318Z,60.10
2023-05-12T00:25:40.607Z,60.78
2023-05-12T00:27:21.918Z,60.73
2023-05-12T00:29:03.241Z,59.77
2023-05-12T00:30:44.569Z,60.07
2023-05-12T00:32:25.960Z,59.98
2023-05-12T00:34:07.252Z,60.05
2023-05-12T00:35:48.510Z,59.49
2023-05-12T00:37:29.880Z,59.21
2023-05-12T00:39:11.176Z,59.94
2023-05-12T00:40:52.499Z,58.16
2023-05-12T00:42:33.817Z,57.01
2023-05-12T00:44:15.172Z,56.89
2023-05-12T00:45:56.594Z,56.60
2023-05-12T00:47:37.933Z,55.78
2023-05-12T00:49:19.245Z,56.44
2023-05-12T00:51:00.538Z,56.20
2023-05-12T00:52:41.812Z,55.60
2023-05-12T00:54:23.131Z,55.61
2023-05-12T00:56:04.443Z,57.31
2023-05-12T00:57:45.746Z,56.72
2023-05-12T00:59:27.050Z,58.01
2023-05-12T01:01:08.389Z,59.39
2023-05-12T01:02:49.808Z,60.14
2023-05-12T01:04:31.201Z,59.41
2023-05-12T01:06:12.523Z,59.67
2023-05-12T01:07:54.109Z,58.65
2023-05-12T01:09:35.448Z,58.33
2023-05-12T01:11:16.758Z,57.71
2023-05-12T01:12:58.106Z,56.95
2023-05-12T01:14:39.449Z,57.24
2023-05-12T01:16:20.760Z,57.57
2023-05-12T01:18:02.155Z,57.96
2023-05-12T01:19:43.514Z,58.39
2023-05-12T01:21:24.836Z,58.70
2023-05-12T01:23:06.142Z,58.81
2023-05-12T01:24:47.482Z,58.77
2023-05-12T01:26:28.807Z,59.18
2023-05-12T01:28:10.155Z,59.51
2023-05-12T01:29:51.458Z,59.51
2023-05-12T01:31:32.812Z,59.79
2023-05-12T01:33:14.135Z,60.17
2023-05-12T01:34:55.436Z,59.88
2023-05-12T01:36:36.734Z,59.95
2023-05-12T01:38:18.010Z,58.74
2023-05-12T01:39:59.303Z,58.96
2023-05-12T01:41:40.604Z,59.00
2023-05-12T01:43:22.359Z,58.08
2023-05-12T01:45:03.807Z,57.74
2023-05-12T01:46:45.158Z,57.46
2023-05-12T01:48:26.478Z,56.97
2023-05-12T01:50:07.779Z,57.07
2023-05-12T01:51:49.112Z,57.31
2023-05-12T01:53:30.405Z,57.83
2023-05-12T01:55:11.731Z,58.61
2023-05-12T01:56:53.050Z,58.74
2023-05-12T01:58:34.417Z,58.64
2023-05-12T02:00:15.729Z,57.98
2023-05-12T02:01:57.098Z,57.73
2023-05-12T02:03:38.588Z,57.19
2023-05-12T02:05:20.010Z,56.81
2023-05-12T02:07:01.326Z,56.08
2023-05-12T02:08:42.646Z,57.17
2023-05-12T02:10:24.014Z,57.35
2023-05-12T02:12:05.305Z,57.78
2023-05-12T02:13:46.611Z,58.92
2023-05-12T02:15:27.875Z,58.71
2023-05-12T02:17:09.192Z,59.15
2023-05-12T02:18:50.581Z,58.68
2023-05-12T02:20:31.976Z,58.68
2023-05-12T02:22:13.283Z,58.36
2023-05-12T02:23:54.566Z,58.11
2023-05-12T02:25:35.852Z,57.84
2023-05-12T02:27:17.168Z,57.90
2023-05-12T02:28:58.447Z,57.73
2023-05-12T02:30:39.724Z,57.88
2023-05-12T02:32:21.092Z,58.39
2023-05-12T02:34:04.388Z,58.83
2023-05-12T02:35:47.085Z,58.38
2023-05-12T02:37:28.410Z,58.24
2023-05-12T02:39:09.699Z,58.74
2023-05-12T02:40:50.980Z,58.39
2023-05-12T02:42:32.314Z,58.49
2023-05-12T02:44:13.622Z,57.92
2023-05-12T02:45:54.967Z,57.47
2023-05-12T02:47:36.341Z,56.53
2023-05-12T02:49:17.687Z,55.91
2023-05-12T02:50:58.975Z,55.47
2023-05-12T02:52:40.305Z,55.30
2023-05-12T02:54:21.618Z,55.14
2023-05-12T02:56:02.893Z,56.08
2023-05-12T02:57:44.212Z,56.52
2023-05-12T02:59:25.492Z,58.02
2023-05-12T03:01:11.317Z,58.83
2023-05-12T03:02:53.169Z,59.11
2023-05-12T03:04:34.510Z,58.04
2023-05-12T03:06:15.788Z,57.75
2023-05-12T03:07:57.065Z,57.56
2023-05-12T03:09:38.446Z,57.50
2023-05-12T03:11:19.724Z,57.03
2023-05-12T03:13:01.019Z,57.29
2023-05-12T03:14:42.414Z,58.40
2023-05-12T03:16:23.696Z,58.38
2023-05-12T03:18:05.088Z,59.00
2023-05-12T03:19:46.385Z,60.22
2023-05-12T03:21:27.682Z,60.73
2023-05-12T03:23:08.972Z,61.35
2023-05-12T03:24:50.256Z,62.35
2023-05-12T03:26:31.550Z,62.51
2023-05-12T03:28:12.847Z,62.46
2023-05-12T03:29:54.132Z,62.02
2023-05-12T03:31:35.483Z,61.44
2023-05-12T03:33:16.809Z,60.36
2023-05-12T03:34:58.093Z,60.31
2023-05-12T03:36:39.384Z,59.56
2023-05-12T03:38:20.698Z,59.10
2023-05-12T03:40:01.993Z,60.54
2023-05-12T03:41:43.379Z,60.33
2023-05-12T03:43:24.663Z,60.74
2023-05-12T03:45:05.926Z,60.95
2023-05-12T03:46:47.284Z,61.17
2023-05-12T03:48:28.673Z,61.33
2023-05-12T03:50:09.955Z,61.40
2023-05-12T03:51:51.265Z,61.42
2023-05-12T03:53:32.590Z,62.18
2023-05-12T03:55:13.914Z,61.49
2023-05-12T03:56:55.193Z,60.90
2023-05-12T03:58:36.468Z,60.17
2023-05-12T04:00:18.026Z,59.34
2023-05-12T04:01:59.559Z,59.53
2023-05-12T04:03:40.943Z,60.38
2023-05-12T04:05:22.323Z,60.50
2023-05-12T04:07:03.619Z,60.55
2023-05-12T04:08:44.916Z,60.79
2023-05-12T04:10:26.281Z,60.30
2023-05-12T04:12:07.557Z,59.63
2023-05-12T04:13:48.832Z,60.37
2023-05-12T04:15:30.157Z,60.08
2023-05-12T04:17:11.445Z,59.29
2023-05-12T04:18:52.880Z,58.84
2023-05-12T04:20:34.315Z,58.21
2023-05-12T04:22:15.635Z,57.80
2023-05-12T04:23:56.940Z,57.05
2023-05-12T04:25:38.292Z,56.74
2023-05-12T04:27:19.594Z,57.21
2023-05-12T04:29:00.885Z,57.25
2023-05-12T04:30:42.268Z,58.23
2023-05-12T04:32:23.646Z,57.75
2023-05-12T04:34:04.961Z,57.66
2023-05-12T04:35:46.281Z,57.80
2023-05-12T04:37:27.591Z,58.17
2023-05-12T04:39:08.859Z,57.83
2023-05-12T04:40:50.175Z,57.71
2023-05-12T04:42:31.466Z,57.50
2023-05-12T04:44:12.771Z,57.35
2023-05-12T04:45:54.189Z,57.97
2023-05-12T04:47:35.537Z,58.00
2023-05-12T04:49:16.849Z,58.48
2023-05-12T04:50:58.176Z,57.76
2023-05-12T04:52:39.465Z,58.30
2023-05-12T04:54:20.760Z,57.70
2023-05-12T04:56:02.099Z,57.91
2023-05-12T04:57:43.404Z,58.30
2023-05-12T04:59:24.766Z,57.80
2023-05-12T05:01:06.131Z,57.35
2023-05-12T05:02:47.535Z,58.00
2023-05-12T05:04:28.853Z,58.08
2023-05-12T05:06:10.178Z,57.66
2023-05-12T05:07:51.478Z,58.01
2023-05-12T05:09:34.933Z,57.72
2023-05-12T05:11:17.443Z,57.54
2023-05-12T05:12:58.763Z,57.21
2023-05-12T05:14:40.061Z,57.35
2023-05-12T05:16:21.383Z,57.50
2023-05-12T05:18:02.734Z,58.75
2023-05-12T05:19:55.129Z,59.60
2023-05-12T05:21:39.956Z,59.91
2023-05-12T05:23:21.233Z,60.24
2023-05-12T05:25:02.547Z,60.27
2023-05-12T05:26:43.856Z,60.01
2023-05-12T05:28:25.189Z,60.35
2023-05-12T05:30:06.493Z,60.14
2023-05-12T05:31:47.849Z,60.75
2023-05-12T05:33:29.206Z,60.37
2023-05-12T05:35:10.541Z,59.95
2023-05-12T05:36:51.846Z,60.58
2023-05-12T05:38:33.223Z,60.76
2023-05-12T05:40:14.522Z,60.70
2023-05-12T05:41:55.892Z,60.03
2023-05-12T05:43:37.183Z,59.45
2023-05-12T05:45:18.690Z,59.08
2023-05-12T05:47:00.128Z,59.37
2023-05-12T05:48:41.514Z,59.64
2023-05-12T05:50:22.863Z,59.06
2023-05-12T05:52:04.145Z,57.70
2023-05-12T05:53:45.485Z,56.62
2023-05-12T05:55:26.802Z,57.58
2023-05-12T05:57:08.131Z,57.64
2023-05-12T05:58:49.403Z,57.33
2023-05-12T06:00:30.673Z,56.91
2023-05-12T06:02:11.974Z,56.13
2023-05-12T06:03:53.393Z,55.14
2023-05-12T06:05:34.757Z,54.77
2023-05-12T06:07:16.125Z,54.57
2023-05-12T06:08:59.269Z,54.51
2023-05-12T06:10:40.546Z,55.30
2023-05-12T06:12:21.893Z,55.15
2023-05-12T06:14:03.388Z,55.21
2023-05-12T06:15:44.707Z,55.08
2023-05-12T06:17:26.074Z,55.61
2023-05-12T06:19:07.510Z,56.15
2023-05-12T06:20:48.831Z,56.73
2023-05-12T06:22:30.305Z,56.84
2023-05-12T06:24:11.605Z,56.69
2023-05-12T06:25:52.931Z,56.22
2023-05-12T06:27:34.246Z,56.84
2023-05-12T06:29:15.550Z,54.86
2023-05-12T06:30:56.818Z,53.89
2023-05-12T06:32:38.157Z,53.73
2023-05-12T06:34:19.486Z,53.20
2023-05-12T06:36:00.768Z,51.29
2023-05-12T06:37:42.076Z,50.83
2023-05-12T06:39:23.382Z,50.97
2023-05-12T06:41:04.757Z,50.17
2023-05-12T06:42:46.081Z,49.87
2023-05-12T06:44:27.380Z,50.57
2023-05-12T06:46:08.722Z,50.59
2023-05-12T06:47:50.251Z,49.85
2023-05-12T06:49:31.639Z,49.42
2023-05-12T06:51:12.925Z,48.23
2023-05-12T06:52:54.231Z,49.01
2023-05-12T06:54:35.510Z,50.42
2023-05-12T06:56:16.826Z,48.75
2023-05-12T06:57:58.131Z,49.56
2023-05-12T06:59:39.437Z,50.21
2023-05-12T07:01:20.829Z,46.80
2023-05-12T07:03:02.185Z,46.27
2023-05-12T07:04:43.539Z,46.95
2023-05-12T07:06:24.840Z,47.10
2023-05-12T07:08:06.130Z,46.94
2023-05-12T07:09:47.416Z,46.95
2023-05-12T07:11:28.721Z,44.59
2023-05-12T07:13:10.039Z,44.65
2023-05-12T07:14:51.352Z,46.16
2023-05-12T07:16:32.714Z,52.98
2023-05-12T07:18:14.045Z,54.24
2023-05-12T07:19:55.316Z,54.91
2023-05-12T07:21:36.625Z,55.10
2023-05-12T07:23:17.913Z,56.20
2023-05-12T07:24:59.228Z,56.44
2023-05-12T07:26:40.545Z,55.79
2023-05-12T07:28:21.891Z,55.87
2023-05-12T07:30:03.203Z,56.08
2023-05-12T07:31:44.608Z,55.65
2023-05-12T07:33:26.051Z,56.61
2023-05-12T07:35:07.319Z,56.07
2023-05-12T07:36:48.618Z,54.71
2023-05-12T07:38:29.889Z,56.10
2023-05-12T07:40:11.165Z,56.39
2023-05-12T07:41:52.762Z,55.78
2023-05-12T07:43:34.092Z,55.30
2023-05-12T07:45:15.445Z,54.85
2023-05-12T07:46:56.844Z,52.56
2023-05-12T07:48:38.122Z,52.99
2023-05-12T07:50:19.406Z,53.04
2023-05-12T07:52:00.888Z,54.67
2023-05-12T07:53:42.150Z,54.43
2023-05-12T07:55:23.564Z,53.90
2023-05-12T07:57:04.994Z,54.25
2023-05-12T07:58:47.724Z,53.61
2023-05-12T08:00:29.093Z,54.08
2023-05-12T08:02:10.395Z,53.22
2023-05-12T08:03:52.188Z,54.45
2023-05-12T08:05:33.576Z,53.80
2023-05-12T08:07:14.847Z,54.50
2023-05-12T08:08:56.161Z,51.49
2023-05-12T08:10:37.469Z,50.69
2023-05-12T08:12:18.774Z,51.64
2023-05-12T08:14:00.099Z,50.93
2023-05-12T08:15:41.424Z,49.77
2023-05-12T08:17:22.950Z,52.91
2023-05-12T08:19:04.390Z,52.81
2023-05-12T08:20:45.744Z,51.57
2023-05-12T08:22:27.059Z,53.75
2023-05-12T08:24:08.331Z,54.23
2023-05-12T08:25:49.652Z,55.32
2023-05-12T08:27:30.970Z,55.35
2023-05-12T08:29:12.237Z,54.14
2023-05-12T08:30:53.710Z,54.69
2023-05-12T08:32:35.073Z,53.29
2023-05-12T08:34:16.400Z,52.23
2023-05-12T08:35:57.714Z,53.44
2023-05-12T08:37:39.039Z,54.10
2023-05-12T08:39:20.323Z,53.32
2023-05-12T08:41:01.633Z,52.79
2023-05-12T08:42:43.263Z,54.89
2023-05-12T08:44:24.624Z,53.82
2023-05-12T08:46:05.942Z,52.86
2023-05-12T08:47:47.309Z,52.51
2023-05-12T08:49:28.670Z,52.35
2023-05-12T08:51:12.287Z,51.53
2023-05-12T08:52:53.675Z,51.20
2023-05-12T08:54:37.937Z,51.28
2023-05-12T08:58:11.056Z,51.50
2023-05-12T08:59:52.353Z,49.48
2023-05-12T09:01:34.766Z,48.31
2023-05-12T09:03:17.940Z,48.97
2023-05-12T09:04:59.254Z,49.30
2023-05-12T09:06:40.583Z,49.77
2023-05-12T09:08:21.924Z,46.91
2023-05-12T09:10:03.243Z,48.77
2023-05-12T09:11:44.540Z,48.52
2023-05-12T09:13:25.855Z,50.44
2023-05-12T09:15:07.156Z,49.62
2023-05-12T09:16:48.488Z,48.06
2023-05-12T09:18:29.847Z,50.92
2023-05-12T09:20:20.612Z,48.71
2023-05-12T09:22:11.598Z,48.47
2023-05-12T09:23:52.907Z,48.50
2023-05-12T09:25:34.247Z,48.10
2023-05-12T09:27:15.571Z,49.25
2023-05-12T09:28:56.856Z,49.24
2023-05-12T09:30:38.323Z,49.91
2023-05-12T09:32:19.694Z,49.66
2023-05-12T09:34:00.986Z,49.33
2023-05-12T09:35:42.382Z,49.21
2023-05-12T09:37:24.253Z,49.16
2023-05-12T09:39:05.564Z,48.65
2023-05-12T09:40:46.831Z,48.87
2023-05-12T09:42:28.135Z,48.18
2023-05-12T09:44:09.416Z,48.14
2023-05-12T09:45:50.732Z,48.11
2023-05-12T09:47:32.071Z,47.43
2023-05-12T09:49:13.375Z,47.87
2023-05-12T09:50:54.681Z,47.55
2023-05-12T09:52:36.070Z,45.27
2023-05-12T09:54:17.361Z,45.18
2023-05-12T09:55:58.617Z,45.97
2023-05-12T09:57:39.954Z,45.64
2023-05-12T09:59:21.260Z,43.29
2023-05-12T10:02:46.763Z,42.12
2023-05-12T10:04:28.107Z,42.94
2023-05-12T10:06:09.445Z,42.28
2023-05-12T10:07:50.922Z,41.98
2023-05-12T10:09:32.394Z,41.83
2023-05-12T10:11:13.677Z,40.60
2023-05-12T10:12:54.989Z,41.74
2023-05-12T10:14:36.283Z,42.51
2023-05-12T10:16:17.647Z,41.63
2023-05-12T10:17:59.060Z,41.92
2023-05-12T10:19:40.365Z,41.02
2023-05-12T10:21:21.639Z,40.48
2023-05-12T10:23:03.006Z,37.68
2023-05-12T10:24:44.273Z,37.50
2023-05-12T10:26:25.618Z,37.07
2023-05-12T10:28:06.950Z,36.69
2023-05-12T10:29:48.303Z,36.53
2023-05-12T10:31:29.689Z,38.28
2023-05-12T10:33:11.013Z,37.58
2023-05-12T10:34:52.344Z,39.80
2023-05-12T10:36:33.701Z,36.50
2023-05-12T10:38:15.036Z,36.64
2023-05-12T10:39:56.383Z,38.68
2023-05-12T10:41:37.677Z,37.42
2023-05-12T10:43:18.988Z,37.20
2023-05-12T10:45:00.361Z,36.75
2023-05-12T10:46:41.938Z,38.74
2023-05-12T10:48:23.914Z,37.58
2023-05-12T10:50:05.585Z,37.87
2023-05-12T10:51:46.853Z,38.98
2023-05-12T10:53:38.014Z,38.26
2023-05-12T10:55:26.964Z,39.18
2023-05-12T10:57:08.743Z,41.09
2023-05-12T10:58:51.084Z,40.67
2023-05-12T11:00:33.068Z,40.92
2023-05-12T11:02:15.790Z,40.33
2023-05-12T11:03:57.569Z,41.27
2023-05-12T11:05:40.095Z,40.22
2023-05-12T11:07:22.365Z,39.94
2023-05-12T11:09:05.037Z,40.03
2023-05-12T11:10:47.630Z,39.15
2023-05-12T11:12:29.067Z,39.33
2023-05-12T11:14:10.356Z,41.30
2023-05-12T11:15:51.785Z,42.18
2023-05-12T11:17:33.278Z,40.79
2023-05-12T11:19:15.263Z,41.51
2023-05-12T11:20:56.859Z,42.46
2023-05-12T11:22:38.412Z,44.71
2023-05-12T11:24:19.925Z,42.35
2023-05-12T11:26:01.650Z,44.04
2023-05-12T11:27:43.223Z,42.11
2023-05-12T11:29:24.613Z,43.35
2023-05-12T11:31:05.964Z,42.43
2023-05-12T11:32:47.457Z,42.11
2023-05-12T11:34:28.771Z,41.97
2023-05-12T11:36:10.192Z,41.41
2023-05-12T11:37:51.531Z,44.00
2023-05-12T11:39:32.822Z,43.41
2023-05-12T11:41:14.134Z,41.63
2023-05-12T11:42:55.744Z,42.09
2023-05-12T11:44:37.563Z,42.11
2023-05-12T11:46:19.118Z,41.56
2023-05-12T11:48:00.504Z,42.01
2023-05-12T11:49:42.023Z,43.76
2023-05-12T11:51:23.601Z,43.80
2023-05-12T11:53:04.901Z,44.80
2023-05-12T11:54:46.185Z,44.91
2023-05-12T11:56:27.695Z,44.19
2023-05-12T11:58:09.151Z,44.35
2023-05-12T11:59:50.661Z,44.21
2023-05-12T12:01:32.240Z,44.49
2023-05-12T12:03:13.698Z,44.62
2023-05-12T12:04:55.202Z,43.75
2023-05-12T12:06:36.626Z,41.97
2023-05-12T12:08:17.982Z,42.85
2023-05-12T12:09:59.282Z,43.49
2023-05-12T12:11:40.832Z,44.47
2023-05-12T12:13:22.289Z,44.55
2023-05-12T12:15:03.749Z,43.03
2023-05-12T12:16:45.104Z,41.87
2023-05-12T12:18:26.557Z,41.94
2023-05-12T12:20:08.340Z,42.52
2023-05-12T12:21:49.900Z,44.16
2023-05-12T12:23:37.797Z,45.29
2023-05-12T12:25:28.849Z,45.76
2023-05-12T12:27:10.389Z,47.39
2023-05-12T12:28:52.002Z,47.19
2023-05-12T12:30:33.339Z,47.51
2023-05-12T12:32:14.659Z,47.67
2023-05-12T12:33:55.988Z,46.32
2023-05-12T12:35:37.264Z,46.89
2023-05-12T12:37:18.586Z,46.60
2023-05-12T12:38:59.894Z,44.51
2023-05-12T12:40:41.449Z,45.19
2023-05-12T12:42:22.978Z,47.04
2023-05-12T12:44:04.282Z,46.29
2023-05-12T12:45:45.617Z,45.38
2023-05-12T12:47:27.158Z,45.05
2023-05-12T12:49:08.889Z,45.40
2023-05-12T12:50:50.263Z,44.59
2023-05-12T12:52:31.571Z,43.77
2023-05-12T12:54:12.912Z,43.35
2023-05-12T12:55:54.904Z,44.73
2023-05-12T12:57:36.455Z,45.72
2023-05-12T12:59:17.774Z,43.99
2023-05-12T13:00:59.288Z,45.09
2023-05-12T13:02:40.933Z,44.04
2023-05-12T13:04:22.344Z,43.83
2023-05-12T13:06:03.865Z,45.05
2023-05-12T13:07:45.561Z,47.93
2023-05-12T13:09:27.145Z,49.76
2023-05-12T13:11:08.436Z,49.11
2023-05-12T13:12:49.908Z,50.94
2023-05-12T13:14:31.501Z,49.51
2023-05-12T13:16:13.005Z,48.52
2023-05-12T13:17:54.433Z,48.35
2023-05-12T13:19:37.930Z,48.65
2023-05-12T13:21:19.766Z,48.21
2023-05-12T13:23:01.536Z,49.74
2023-05-12T13:24:43.018Z,50.89
2023-05-12T13:26:24.322Z,48.14
2023-05-12T13:28:05.642Z,49.75
2023-05-12T13:29:46.938Z,48.29
2023-05-12T13:31:28.290Z,48.66
2023-05-12T13:33:10.137Z,46.28
2023-05-12T13:34:51.690Z,44.88
2023-05-12T13:36:33.072Z,47.22
2023-05-12T13:38:14.399Z,45.40
2023-05-12T13:39:55.726Z,46.15
2023-05-12T13:41:37.021Z,45.13
2023-05-12T13:43:18.546Z,45.37
2023-05-12T13:45:00.340Z,45.89
2023-05-12T13:46:41.890Z,45.64
2023-05-12T13:48:23.203Z,47.71
2023-05-12T13:50:04.540Z,48.85
2023-05-12T13:51:45.826Z,48.92
2023-05-12T13:53:27.134Z,50.38
2023-05-12T13:55:08.460Z,48.20
2023-05-12T13:56:49.734Z,47.34
2023-05-12T13:58:31.013Z,47.86
2023-05-12T14:00:12.388Z,47.17
2023-05-12T14:01:53.683Z,47.29
2023-05-12T14:03:35.348Z,47.47
2023-05-12T14:05:17.136Z,48.02
2023-05-12T14:06:58.560Z,46.95
2023-05-12T14:08:39.843Z,48.84
2023-05-12T14:10:21.493Z,48.73
2023-05-12T14:12:02.986Z,49.47
2023-05-12T14:13:44.301Z,48.73
2023-05-12T14:15:40.027Z,48.55
2023-05-12T14:17:25.925Z,49.66
2023-05-12T14:19:07.325Z,49.63
2023-05-12T14:20:48.844Z,48.67
2023-05-12T14:22:30.453Z,48.70
2023-05-12T14:24:11.913Z,48.11
2023-05-12T14:25:53.411Z,47.93
2023-05-12T14:27:34.834Z,48.41
2023-05-12T14:29:16.136Z,48.83
2023-05-12T14:30:57.446Z,49.89
2023-05-12T14:32:38.804Z,50.00
2023-05-12T14:34:20.156Z,49.55
2023-05-12T14:36:07.243Z,50.07
2023-05-12T14:37:50.144Z,48.79
2023-05-12T14:39:31.751Z,49.96
2023-05-12T14:41:13.263Z,49.56
2023-05-12T14:42:54.965Z,49.30
2023-05-12T14:44:36.477Z,49.22
2023-05-12T14:46:18.190Z,49.12
2023-05-12T14:47:59.878Z,49.53
2023-05-12T14:49:42.078Z,48.71
2023-05-12T14:51:25.129Z,47.01
2023-05-12T14:53:06.657Z,48.46
2023-05-12T14:54:47.948Z,47.59
2023-05-12T14:56:29.308Z,48.73
2023-05-12T14:58:10.589Z,49.14
2023-05-12T14:59:51.903Z,49.45
2023-05-12T15:01:33.831Z,50.31
2023-05-12T15:03:15.740Z,48.09
2023-05-12T15:04:57.165Z,48.98
2023-05-12T15:06:38.490Z,49.05
2023-05-12T15:08:19.822Z,49.96
2023-05-12T15:10:01.142Z,50.89
2023-05-12T15:11:42.459Z,50.54
2023-05-12T15:13:23.907Z,52.70
2023-05-12T15:15:05.259Z,53.69
2023-05-12T15:16:46.611Z,55.58
2023-05-12T15:18:28.144Z,55.39
2023-05-12T15:20:09.489Z,54.19
2023-05-12T15:21:50.798Z,56.86
2023-05-12T15:23:32.121Z,57.09
2023-05-12T15:25:13.403Z,57.43
2023-05-12T15:26:54.730Z,57.35
2023-05-12T15:28:36.044Z,56.42
2023-05-12T15:30:17.366Z,56.43
2023-05-12T15:31:58.877Z,55.58
2023-05-12T15:33:40.583Z,54.25
2023-05-12T15:35:22.246Z,53.65
2023-05-12T15:37:03.801Z,53.94
2023-05-12T15:38:45.089Z,52.84
2023-05-12T15:40:26.402Z,51.84
2023-05-12T15:42:07.989Z,51.11
2023-05-12T15:43:49.810Z,52.37
2023-05-12T15:45:31.958Z,52.29
2023-05-12T15:47:13.497Z,51.94
2023-05-12T15:48:54.764Z,51.91
2023-05-12T15:50:36.073Z,51.95
2023-05-12T15:52:17.411Z,50.24
2023-05-12T15:53:58.686Z,52.75
2023-05-12T15:55:39.998Z,51.46
2023-05-12T15:57:21.972Z,51.29
2023-05-12T15:59:03.410Z,52.51
2023-05-12T16:00:44.932Z,50.23
2023-05-12T16:02:26.580Z,50.38
2023-05-12T16:04:07.978Z,52.94
2023-05-12T16:05:49.595Z,54.54
2023-05-12T16:07:31.366Z,54.52
2023-05-12T16:09:12.813Z,55.90
2023-05-12T16:10:54.095Z,57.76
2023-05-12T16:12:35.382Z,57.45
2023-05-12T16:14:16.660Z,59.33
2023-05-12T16:15:58.039Z,59.61
2023-05-12T16:17:39.374Z,59.75
2023-05-12T16:19:20.713Z,59.34
2023-05-12T16:21:02.035Z,59.41
2023-05-12T16:22:43.579Z,58.47
2023-05-12T16:24:25.136Z,58.84
2023-05-12T16:26:06.655Z,59.45
2023-05-12T16:27:48.288Z,59.56
2023-05-12T16:29:29.692Z,58.52
2023-05-12T16:31:11.194Z,58.41
2023-05-12T16:32:52.707Z,57.35
2023-05-12T16:34:34.245Z,56.15
2023-05-12T16:36:17.666Z,54.90
2023-05-12T16:37:59.105Z,55.62
2023-05-12T16:39:40.685Z,56.29
2023-05-12T16:41:22.238Z,56.52
2023-05-12T16:43:03.531Z,57.51
2023-05-12T16:44:44.996Z,58.38
2023-05-12T16:46:26.557Z,57.58
2023-05-12T16:48:07.957Z,56.66
2023-05-12T16:49:50.060Z,56.50
2023-05-12T16:51:31.563Z,56.77
2023-05-12T16:53:12.910Z,56.14
2023-05-12T16:54:54.193Z,55.55
2023-05-12T16:56:35.772Z,55.97
2023-05-12T16:58:17.336Z,55.92
2023-05-12T16:59:58.729Z,55.91
2023-05-12T17:01:40.084Z,55.61
2023-05-12T17:03:21.527Z,55.46
2023-05-12T17:05:02.903Z,54.83
2023-05-12T17:06:44.496Z,56.14
2023-05-12T17:08:26.137Z,54.87
2023-05-12T17:10:07.417Z,55.56
2023-05-12T17:11:48.849Z,55.91
2023-05-12T17:13:30.299Z,55.33
2023-05-12T17:15:11.584Z,55.43
2023-05-12T17:16:53.086Z,55.41
2023-05-12T17:19:13.466Z,55.67
2023-05-12T17:20:35.969Z,55.80
2023-05-12T17:22:17.287Z,54.69
2023-05-12T17:23:58.602Z,55.13
2023-05-12T17:25:39.900Z,55.05
2023-05-12T17:27:21.182Z,54.83
2023-05-12T17:29:02.509Z,55.13
2023-05-12T17:30:43.804Z,54.54
2023-05-12T17:32:25.113Z,54.01
2023-05-12T17:34:06.478Z,53.88
2023-05-12T17:35:59.842Z,54.22
2023-05-12T17:37:49.805Z,53.82
2023-05-12T17:39:31.450Z,54.53
2023-05-12T17:41:12.896Z,53.42
2023-05-12T17:42:54.189Z,53.62
2023-05-12T17:44:36.211Z,54.51
2023-05-12T17:46:17.739Z,54.06
2023-05-12T17:47:59.348Z,54.91
2023-05-12T17:49:41.089Z,55.15
2023-05-12T17:51:22.541Z,55.02
2023-05-12T17:53:03.823Z,55.08
2023-05-12T17:54:45.339Z,54.71
2023-05-12T17:56:26.845Z,53.73
2023-05-12T17:58:08.398Z,54.64
2023-05-12T17:59:49.869Z,53.66
2023-05-12T18:01:31.336Z,53.99
2023-05-12T18:03:12.733Z,54.22
2023-05-12T18:04:54.161Z,55.16
2023-05-12T18:06:36.164Z,54.79
2023-05-12T18:08:17.624Z,55.17
2023-05-12T18:09:59.142Z,56.89
2023-05-12T18:11:40.852Z,56.93
2023-05-12T18:13:22.298Z,56.75
2023-05-12T18:15:03.812Z,56.49
2023-05-12T18:16:45.394Z,55.74
2023-05-12T18:18:26.844Z,56.19
2023-05-12T18:20:08.441Z,56.41
2023-05-12T18:21:50.113Z,55.93
2023-05-12T18:23:31.662Z,55.56
2023-05-12T18:25:13.035Z,56.19
2023-05-12T18:26:54.436Z,55.06
2023-05-12T18:28:35.742Z,55.41
2023-05-12T18:30:17.030Z,55.71
2023-05-12T18:31:58.477Z,56.89
2023-05-12T18:33:40.136Z,57.88
2023-05-12T18:35:21.840Z,56.62
2023-05-12T18:37:03.442Z,56.81
2023-05-12T18:38:44.742Z,56.97
2023-05-12T18:40:26.031Z,56.92
2023-05-12T18:42:07.471Z,56.80
2023-05-12T18:43:48.766Z,57.11
2023-05-12T18:45:30.320Z,56.01
2023-05-12T18:47:11.966Z,55.33
2023-05-12T18:48:53.268Z,55.30
2023-05-12T18:50:34.601Z,55.69
2023-05-12T18:52:15.934Z,56.08
2023-05-12T18:53:57.210Z,59.57
2023-05-12T18:55:38.515Z,61.15
2023-05-12T18:57:19.877Z,63.63
2023-05-12T18:59:01.158Z,62.22
2023-05-12T19:00:42.471Z,64.57
2023-05-12T19:02:23.849Z,63.85
2023-05-12T19:04:05.188Z,64.76
2023-05-12T19:05:47.219Z,64.76
2023-05-12T19:07:28.842Z,66.12
2023-05-12T19:09:10.150Z,67.25
2023-05-12T19:10:51.686Z,67.69
2023-05-12T19:12:33.192Z,67.41
2023-05-12T19:14:14.655Z,68.11
2023-05-12T19:15:56.296Z,67.49
2023-05-12T19:17:37.892Z,67.75
2023-05-12T19:19:19.310Z,66.63
2023-05-12T19:21:00.584Z,65.23
2023-05-12T19:22:41.875Z,65.83
2023-05-12T19:24:23.156Z,64.20
2023-05-12T19:26:04.459Z,64.43
2023-05-12T19:27:45.778Z,64.29
2023-05-12T19:29:27.138Z,64.52
2023-05-12T19:31:09.092Z,64.94
2023-05-12T19:32:50.694Z,63.97
2023-05-12T19:34:32.009Z,65.37
2023-05-12T19:36:13.313Z,65.88
2023-05-12T19:37:54.683Z,66.17
2023-05-12T19:39:36.045Z,66.00
2023-05-12T19:41:17.351Z,66.92
2023-05-12T19:42:59.210Z,66.68
2023-05-12T19:44:40.723Z,66.94
2023-05-12T19:46:22.119Z,66.24
2023-05-12T19:48:03.494Z,67.29
2023-05-12T19:49:44.877Z,65.94
2023-05-12T19:51:26.405Z,65.76
2023-05-12T19:53:07.974Z,66.03
2023-05-12T19:54:49.287Z,64.84
2023-05-12T19:56:30.587Z,65.49
2023-05-12T19:58:11.878Z,64.75
2023-05-12T19:59:53.186Z,64.24
2023-05-12T20:01:34.536Z,64.14
2023-05-12T20:03:16.318Z,64.61
2023-05-12T20:04:57.745Z,64.89
2023-05-12T20:06:39.028Z,64.68
2023-05-12T20:08:20.319Z,65.20
2023-05-12T20:10:01.610Z,63.18
2023-05-12T20:11:42.904Z,62.48
2023-05-12T20:13:24.443Z,61.57
2023-05-12T20:15:05.969Z,61.01
2023-05-12T20:16:47.288Z,61.68
2023-05-12T20:18:28.693Z,61.72
2023-05-12T20:20:10.330Z,62.04
2023-05-12T20:21:51.827Z,63.44
2023-05-12T20:23:33.166Z,63.99
2023-05-12T20:25:14.472Z,63.35
2023-05-12T20:26:55.795Z,64.37
2023-05-12T20:28:37.356Z,64.59
2023-05-12T20:30:19.171Z,64.34
2023-05-12T20:32:00.823Z,63.16
2023-05-12T20:33:42.265Z,62.88
2023-05-12T20:35:23.760Z,62.24
2023-05-12T20:37:05.170Z,62.25
2023-05-12T20:38:46.476Z,64.21
2023-05-12T20:40:27.766Z,66.21
2023-05-12T20:42:09.833Z,65.82
2023-05-12T20:43:51.443Z,66.30
2023-05-12T20:45:32.739Z,65.92
2023-05-12T20:47:14.054Z,63.89
2023-05-12T20:48:55.423Z,62.52
2023-05-12T20:50:36.948Z,61.83
2023-05-12T20:52:18.441Z,61.56
2023-05-12T20:54:00.000Z,61.39
2023-05-12T20:55:41.475Z,63.36
2023-05-12T20:57:22.947Z,63.03
2023-05-12T20:59:04.555Z,61.67
2023-05-12T21:00:45.865Z,61.80
2023-05-12T21:02:27.540Z,59.97
2023-05-12T21:04:09.422Z,59.13
2023-05-12T21:05:50.834Z,58.41
2023-05-12T21:07:32.105Z,58.28
2023-05-12T21:09:13.423Z,57.92
2023-05-12T21:10:54.725Z,58.01
2023-05-12T21:12:36.061Z,60.07
2023-05-12T21:14:18.026Z,62.65
2023-05-12T21:15:59.772Z,62.58
2023-05-12T21:17:41.281Z,61.73
2023-05-12T21:19:22.666Z,61.06
2023-05-12T21:21:04.212Z,61.03
2023-05-12T21:22:45.744Z,61.06
2023-05-12T21:24:27.237Z,59.85
2023-05-12T21:26:08.751Z,61.41
2023-05-12T21:27:50.075Z,62.05
2023-05-12T21:29:31.363Z,62.47
2023-05-12T21:31:12.669Z,62.29
2023-05-12T21:32:54.021Z,61.62
2023-05-12T21:34:35.334Z,60.91
2023-05-12T21:36:16.659Z,61.00
2023-05-12T21:37:57.958Z,60.83
2023-05-12T21:39:39.248Z,59.60
2023-05-12T21:41:20.580Z,60.33
2023-05-12T21:43:02.038Z,59.42
2023-05-12T21:44:43.914Z,59.14
2023-05-12T21:46:25.410Z,58.80
2023-05-12T21:48:06.766Z,58.82
2023-05-12T21:49:48.143Z,58.52
2023-05-12T21:51:29.454Z,59.55